createdAt,value
2023-02-14T00:02:37.786Z,44.47
2023-02-14T00:05:23.861Z,44.85
2023-02-14T00:08:10.046Z,45.04
2023-02-14T00:10:56.118Z,44.58
2023-02-14T00:14:02.214Z,44.86
2023-02-14T00:16:47.941Z,44.91
2023-02-14T00:19:35.995Z,45.11
2023-02-14T00:22:22.094Z,44.47
2023-02-14T00:25:08.169Z,45.25
2023-02-14T00:27:55.704Z,45.24
2023-02-14T00:30:41.379Z,45.33
2023-02-14T00:33:27.400Z,45.08
2023-02-14T00:36:13.350Z,45.41
2023-02-14T00:38:59.366Z,44.82
2023-02-14T00:41:45.219Z,45.26
2023-02-14T00:44:31.499Z,45.29
2023-02-14T00:47:17.229Z,44.88
2023-02-14T00:50:05.177Z,45.28
2023-02-14T00:52:50.996Z,45.11
2023-02-14T00:55:37.796Z,45.52
2023-02-14T00:58:23.429Z,45.38
2023-02-14T01:01:09.620Z,45.94
2023-02-14T01:03:56.772Z,45.58
2023-02-14T01:06:42.739Z,45.16
2023-02-14T01:09:28.372Z,45.22
2023-02-14T01:12:15.125Z,45.26
2023-02-14T01:15:01.305Z,45.69
2023-02-14T01:17:46.969Z,45.52
2023-02-14T01:20:33.023Z,45.96
2023-02-14T01:23:19.034Z,45.78
2023-02-14T01:26:08.630Z,45.56
2023-02-14T01:28:55.104Z,45.65
2023-02-14T01:31:42.449Z,46.15
2023-02-14T01:34:28.134Z,45.86
2023-02-14T01:37:17.810Z,46.35
2023-02-14T01:40:05.644Z,46.15
2023-02-14T01:43:17.319Z,47.58
2023-02-14T01:46:03.986Z,45.84
2023-02-14T01:48:49.903Z,45.80
2023-02-14T01:51:44.000Z,46.35
2023-02-14T01:54:32.120Z,45.90
2023-02-14T01:57:19.541Z,45.90
2023-02-14T02:00:41.383Z,47.04
2023-02-14T02:04:29.475Z,47.36
2023-02-14T02:07:20.495Z,46.24
2023-02-14T02:10:07.705Z,46.41
2023-02-14T02:12:54.908Z,46.15
2023-02-14T02:16:22.736Z,48.33
2023-02-14T02:19:42.231Z,46.88
2023-02-14T02:23:09.614Z,49.65
2023-02-14T02:26:10.907Z,46.99
2023-02-14T02:29:34.141Z,47.81
2023-02-14T02:33:21.455Z,46.45
2023-02-14T02:36:55.989Z,46.16
2023-02-14T02:40:12.551Z,48.26
2023-02-14T02:44:05.854Z,47.72
2023-02-14T02:47:16.567Z,47.13
2023-02-14T02:50:29.854Z,46.69
2023-02-14T02:53:42.539Z,46.79
2023-02-14T03:00:20.645Z,46.88
2023-02-14T03:03:43.008Z,46.17
2023-02-14T03:06:30.871Z,46.72
2023-02-14T03:09:19.981Z,46.45
2023-02-14T03:12:44.779Z,48.27
2023-02-14T03:15:43.069Z,49.73
2023-02-14T03:19:01.858Z,48.21
2023-02-14T03:21:53.274Z,46.61
2023-02-14T03:24:46.340Z,46.46
2023-02-14T03:27:35.916Z,46.85
2023-02-14T03:30:33.608Z,46.94
2023-02-14T03:34:18.570Z,48.45
2023-02-14T03:41:46.727Z,46.94
2023-02-14T03:45:00.354Z,48.34
2023-02-14T03:47:47.225Z,47.15
2023-02-14T03:50:38.980Z,47.41
2023-02-14T03:53:27.484Z,47.33
2023-02-14T03:56:35.112Z,46.97
2023-02-14T03:59:23.449Z,47.10
2023-02-14T04:02:11.898Z,46.76
2023-02-14T04:05:00.863Z,47.18
2023-02-14T04:07:49.609Z,46.87
2023-02-14T04:11:09.807Z,49.67
2023-02-14T04:13:55.562Z,47.12
2023-02-14T04:20:26.746Z,47.16
2023-02-14T04:23:12.827Z,47.04
2023-02-14T04:26:05.119Z,47.19
2023-02-14T04:28:52.342Z,46.80
2023-02-14T04:31:38.138Z,46.82
2023-02-14T04:34:36.494Z,47.44
2023-02-14T04:37:22.265Z,47.32
2023-02-14T04:40:48.654Z,47.65
2023-02-14T04:43:34.668Z,47.49
2023-02-14T04:46:20.341Z,47.47
2023-02-14T04:49:18.602Z,47.80
2023-02-14T04:52:05.305Z,47.09
2023-02-14T04:54:53.704Z,47.44
2023-02-14T04:58:13.899Z,47.77
2023-02-14T05:01:02.580Z,47.30
2023-02-14T05:03:48.716Z,47.42
2023-02-14T05:06:46.955Z,47.94
2023-02-14T05:09:32.558Z,47.24
2023-02-14T05:12:18.294Z,46.94
2023-02-14T05:15:04.460Z,47.49
2023-02-14T05:17:50.112Z,47.33
2023-02-14T05:20:35.928Z,47.44
2023-02-14T05:23:22.154Z,47.15
2023-02-14T05:26:07.947Z,47.57
2023-02-14T05:28:53.753Z,47.20
2023-02-14T05:32:28.658Z,47.89
2023-02-14T05:35:14.461Z,47.69
2023-02-14T05:38:00.377Z,47.65
2023-02-14T05:41:20.679Z,48.73
2023-02-14T05:44:06.608Z,47.57
2023-02-14T05:46:52.306Z,47.60
2023-02-14T05:49:48.510Z,47.86
2023-02-14T05:52:35.076Z,47.95
2023-02-14T05:55:20.923Z,47.73
2023-02-14T05:58:07.721Z,47.58
2023-02-14T06:00:53.735Z,47.35
2023-02-14T06:03:39.438Z,47.18
2023-02-14T06:06:25.119Z,47.44
2023-02-14T06:09:10.893Z,47.60
2023-02-14T06:11:56.668Z,47.72
2023-02-14T06:14:43.591Z,47.97
2023-02-14T06:17:29.526Z,47.76
2023-02-14T06:20:15.142Z,48.26
2023-02-14T06:23:03.059Z,48.05
2023-02-14T06:25:48.917Z,48.03
2023-02-14T06:28:35.796Z,47.86
2023-02-14T06:31:21.842Z,48.04
2023-02-14T06:34:08.977Z,47.89
2023-02-14T06:36:54.523Z,48.45
2023-02-14T06:39:40.275Z,48.18
2023-02-14T06:42:26.243Z,47.58
2023-02-14T06:45:12.365Z,48.20
2023-02-14T06:48:00.018Z,48.06
2023-02-14T06:50:47.231Z,48.18
2023-02-14T06:53:33.687Z,47.99
2023-02-14T06:56:19.584Z,47.82
2023-02-14T06:59:05.880Z,48.16
2023-02-14T07:01:51.815Z,47.75
2023-02-14T07:04:37.657Z,47.83
2023-02-14T07:07:23.558Z,48.28
2023-02-14T07:10:10.771Z,48.36
2023-02-14T07:12:56.800Z,48.46
2023-02-14T07:15:42.791Z,47.99
2023-02-14T07:18:28.813Z,48.52
2023-02-14T07:21:14.525Z,47.92
2023-02-14T07:24:01.314Z,48.43
2023-02-14T07:26:46.973Z,48.03
2023-02-14T07:29:32.956Z,48.09
2023-02-14T07:32:18.707Z,48.29
2023-02-14T07:35:07.691Z,48.09
2023-02-14T07:37:53.688Z,48.30
2023-02-14T07:40:39.393Z,48.15
2023-02-14T07:43:26.305Z,48.30
2023-02-14T07:46:12.543Z,48.58
2023-02-14T07:48:58.446Z,48.60
2023-02-14T07:51:45.173Z,47.92
2023-02-14T07:54:31.094Z,48.67
2023-02-14T07:57:16.991Z,48.12
2023-02-14T08:00:04.778Z,48.01
2023-02-14T08:02:57.953Z,48.22
2023-02-14T08:05:45.058Z,47.85
2023-02-14T08:08:32.265Z,47.71
2023-02-14T08:11:38.628Z,47.91
2023-02-14T08:14:24.543Z,48.06
2023-02-14T08:17:10.968Z,48.43
2023-02-14T08:19:57.880Z,48.46
2023-02-14T08:22:43.456Z,48.25
2023-02-14T08:25:34.315Z,48.78
2023-02-14T08:28:23.047Z,48.59
2023-02-14T08:31:09.095Z,48.43
2023-02-14T08:33:55.415Z,48.16
2023-02-14T08:36:41.888Z,48.22
2023-02-14T08:39:30.070Z,48.53
2023-02-14T08:42:15.737Z,48.24
2023-02-14T08:45:02.708Z,47.94
2023-02-14T08:47:48.308Z,47.86
2023-02-14T08:50:40.916Z,48.26
2023-02-14T08:53:26.706Z,47.58
2023-02-14T08:56:14.902Z,47.46
2023-02-14T08:59:00.542Z,47.54
2023-02-14T09:01:46.340Z,47.54
2023-02-14T09:04:35.217Z,47.63
2023-02-14T09:07:22.340Z,47.59
2023-02-14T09:10:08.748Z,47.97
2023-02-14T09:12:55.771Z,47.87
2023-02-14T09:15:45.635Z,47.29
2023-02-14T09:18:34.891Z,47.42
2023-02-14T09:21:24.005Z,47.60
2023-02-14T09:24:10.041Z,47.37
2023-02-14T09:26:57.884Z,47.17
2023-02-14T09:29:44.273Z,47.49
2023-02-14T09:32:30.163Z,47.38
2023-02-14T09:35:16.719Z,47.46
2023-02-14T09:38:18.778Z,47.13
2023-02-14T09:41:08.840Z,47.62
2023-02-14T09:43:55.083Z,47.18
2023-02-14T09:46:45.971Z,47.28
2023-02-14T09:49:33.755Z,47.31
2023-02-14T09:52:23.137Z,47.03
2023-02-14T09:55:15.897Z,47.34
2023-02-14T09:58:23.240Z,47.16
2023-02-14T10:01:15.286Z,47.10
2023-02-14T10:04:16.848Z,47.23
2023-02-14T10:07:18.428Z,47.00
2023-02-14T10:10:38.652Z,46.88
2023-02-14T10:13:31.951Z,47.09
2023-02-14T10:16:43.285Z,46.92
2023-02-14T10:19:36.340Z,47.05
2023-02-14T10:22:29.304Z,46.55
2023-02-14T10:25:23.157Z,46.79
2023-02-14T10:28:15.241Z,46.54
2023-02-14T10:31:25.850Z,46.39
2023-02-14T10:34:43.639Z,46.24
2023-02-14T10:37:48.361Z,46.23
2023-02-14T10:40:51.343Z,46.50
2023-02-14T10:43:47.508Z,45.60
2023-02-14T10:46:54.479Z,45.57
2023-02-14T10:50:12.712Z,46.01
2023-02-14T10:53:10.793Z,46.54
2023-02-14T10:56:21.404Z,45.91
2023-02-14T10:59:23.139Z,44.29
2023-02-14T11:02:13.984Z,46.06
2023-02-14T11:05:01.280Z,45.28
2023-02-14T11:07:48.283Z,46.09
2023-02-14T11:10:35.754Z,45.44
2023-02-14T11:13:41.204Z,44.83
2023-02-14T11:16:32.306Z,44.92
2023-02-14T11:19:26.882Z,45.41
2023-02-14T11:22:29.966Z,42.98
2023-02-14T11:25:18.775Z,44.22
2023-02-14T11:28:06.497Z,44.37
2023-02-14T11:30:52.427Z,43.78
2023-02-14T11:33:41.360Z,43.00
2023-02-14T11:36:27.501Z,42.63
2023-02-14T11:39:34.820Z,40.48
2023-02-14T11:42:42.971Z,38.93
2023-02-14T11:45:39.802Z,39.49
2023-02-14T11:48:37.614Z,42.19
2023-02-14T11:51:31.157Z,43.08
2023-02-14T11:54:48.549Z,42.42
2023-02-14T11:57:37.670Z,43.29
2023-02-14T12:00:26.817Z,42.43
2023-02-14T12:03:19.242Z,42.43
2023-02-14T12:06:05.206Z,42.72
2023-02-14T12:09:22.181Z,39.49
2023-02-14T12:12:17.863Z,42.62
2023-02-14T12:15:50.052Z,41.41
2023-02-14T12:18:46.278Z,42.13
2023-02-14T12:21:48.819Z,42.81
2023-02-14T12:24:38.573Z,42.75
2023-02-14T12:27:57.303Z,43.10
2023-02-14T12:30:45.218Z,42.71
2023-02-14T12:33:31.241Z,42.86
2023-02-14T12:36:28.985Z,42.33
2023-02-14T12:39:21.013Z,42.65
2023-02-14T12:43:16.282Z,42.31
2023-02-14T12:46:14.698Z,42.57
2023-02-14T12:49:22.653Z,42.22
2023-02-14T12:52:40.695Z,43.46
2023-02-14T12:55:41.174Z,41.63
2023-02-14T12:58:50.703Z,42.76
2023-02-14T13:02:05.342Z,42.76
2023-02-14T13:04:56.188Z,42.55
2023-02-14T13:07:52.983Z,41.39
2023-02-14T13:11:17.968Z,42.74
2023-02-14T13:18:55.700Z,43.21
2023-02-14T13:21:42.042Z,43.25
2023-02-14T13:24:30.715Z,43.45
2023-02-14T13:27:23.089Z,42.52
2023-02-14T13:30:21.988Z,41.55
2023-02-14T13:33:35.274Z,40.19
2023-02-14T13:36:21.346Z,41.19
2023-02-14T13:39:21.719Z,40.36
2023-02-14T13:42:07.903Z,40.12
2023-02-14T13:44:53.942Z,40.27
2023-02-14T13:47:39.686Z,40.03
2023-02-14T13:50:25.761Z,40.71
2023-02-14T13:53:12.768Z,40.13
2023-02-14T13:55:58.892Z,40.10
2023-02-14T13:59:04.580Z,39.32
2023-02-14T14:01:51.393Z,40.46
2023-02-14T14:04:54.596Z,40.01
2023-02-14T14:07:40.459Z,40.28
2023-02-14T14:11:01.486Z,40.46
2023-02-14T14:14:30.379Z,40.34
2023-02-14T14:17:21.288Z,41.45
2023-02-14T14:20:21.065Z,40.87
2023-02-14T14:23:31.487Z,41.25
2023-02-14T14:26:48.232Z,41.99
2023-02-14T14:29:59.571Z,41.98
2023-02-14T14:32:45.570Z,41.65
2023-02-14T14:35:31.448Z,41.69
2023-02-14T14:38:17.011Z,42.17
2023-02-14T14:41:03.001Z,42.06
2023-02-14T14:43:50.510Z,42.30
2023-02-14T14:46:37.137Z,41.75
2023-02-14T14:49:22.772Z,41.89
2023-02-14T14:52:35.483Z,42.32
2023-02-14T14:55:24.676Z,42.41
2023-02-14T14:58:40.176Z,42.08
2023-02-14T15:01:40.100Z,42.40
2023-02-14T15:04:30.612Z,42.15
2023-02-14T15:07:27.663Z,42.21
2023-02-14T15:10:29.347Z,42.65
2023-02-14T15:13:33.840Z,42.41
2023-02-14T15:16:47.474Z,42.09
2023-02-14T15:19:44.256Z,42.01
2023-02-14T15:22:35.755Z,42.37
2023-02-14T15:25:27.261Z,42.25
2023-02-14T15:28:30.527Z,42.31
2023-02-14T15:31:16.873Z,42.54
2023-02-14T15:34:04.831Z,42.80
2023-02-14T15:36:56.123Z,42.49
2023-02-14T15:39:44.126Z,42.38
2023-02-14T15:42:33.109Z,42.82
2023-02-14T15:45:27.829Z,42.82
2023-02-14T15:48:30.026Z,43.36
2023-02-14T15:51:32.892Z,42.93
2023-02-14T15:54:39.497Z,43.41
2023-02-14T15:57:27.188Z,42.91
2023-02-14T16:00:21.740Z,42.98
2023-02-14T16:03:12.951Z,43.39
2023-02-14T16:05:59.174Z,43.42
2023-02-14T16:08:55.071Z,43.37
2023-02-14T16:11:41.132Z,43.31
2023-02-14T16:14:31.363Z,43.29
2023-02-14T16:17:32.283Z,43.73
2023-02-14T16:20:43.544Z,43.50
2023-02-14T16:23:31.072Z,43.62
2023-02-14T16:26:17.144Z,43.86
2023-02-14T16:29:04.065Z,43.81
2023-02-14T16:32:15.110Z,43.72
2023-02-14T16:35:01.031Z,44.16
2023-02-14T16:37:47.634Z,44.43
2023-02-14T16:40:33.611Z,44.22
2023-02-14T16:43:20.248Z,43.52
2023-02-14T16:46:11.457Z,43.49
2023-02-14T16:48:57.461Z,43.49
2023-02-14T16:51:45.772Z,43.42
2023-02-14T16:54:32.414Z,43.52
2023-02-14T16:57:27.666Z,43.61
2023-02-14T17:00:14.492Z,43.51
2023-02-14T17:03:06.397Z,43.64
2023-02-14T17:05:53.369Z,43.79
2023-02-14T17:08:41.029Z,43.70
2023-02-14T17:11:28.771Z,43.57
2023-02-14T17:14:18.754Z,43.65
2023-02-14T17:17:06.579Z,44.03
2023-02-14T17:19:52.918Z,43.50
2023-02-14T17:22:42.461Z,44.12
2023-02-14T17:25:28.473Z,43.86
2023-02-14T17:28:14.089Z,44.00
2023-02-14T17:31:00.933Z,44.04
2023-02-14T17:33:48.609Z,43.73
2023-02-14T17:36:34.495Z,44.10
2023-02-14T17:39:20.601Z,44.20
2023-02-14T17:42:06.275Z,44.01
2023-02-14T17:44:53.172Z,44.21
2023-02-14T17:47:40.986Z,44.27
2023-02-14T17:50:26.728Z,44.56
2023-02-14T17:53:12.598Z,44.20
2023-02-14T17:55:58.316Z,44.21
2023-02-14T17:58:44.301Z,44.04
2023-02-14T18:01:34.843Z,44.09
2023-02-14T18:04:21.364Z,44.01
2023-02-14T18:07:07.838Z,44.45
2023-02-14T18:09:53.978Z,44.60
2023-02-14T18:12:40.095Z,44.47
2023-02-14T18:15:27.576Z,44.56
2023-02-14T18:18:13.934Z,44.58
2023-02-14T18:21:02.555Z,44.52
2023-02-14T18:23:49.566Z,44.71
2023-02-14T18:26:38.916Z,44.50
2023-02-14T18:29:25.243Z,44.56
2023-02-14T18:32:11.557Z,44.53
2023-02-14T18:34:57.828Z,44.72
2023-02-14T18:37:47.513Z,44.65
2023-02-14T18:40:33.237Z,44.74
2023-02-14T18:43:21.186Z,44.67
2023-02-14T18:46:14.196Z,44.60
2023-02-14T18:49:02.068Z,44.88
2023-02-14T18:51:49.060Z,44.57
2023-02-14T18:54:35.140Z,44.63
2023-02-14T18:57:21.136Z,44.83
2023-02-14T19:00:12.062Z,44.90
2023-02-14T19:02:58.836Z,44.97
2023-02-14T19:05:45.896Z,45.07
2023-02-14T19:08:32.956Z,45.17
2023-02-14T19:11:27.554Z,45.06
2023-02-14T19:14:13.719Z,45.11
2023-02-14T19:16:59.644Z,45.19
2023-02-14T19:19:48.401Z,45.58
2023-02-14T19:22:41.507Z,45.15
2023-02-14T19:25:30.974Z,45.18
2023-02-14T19:28:16.950Z,45.08
2023-02-14T19:31:02.942Z,45.38
2023-02-14T19:33:49.057Z,45.17
2023-02-14T19:36:37.644Z,45.31
2023-02-14T19:39:25.949Z,45.24
2023-02-14T19:42:11.947Z,45.30
2023-02-14T19:44:57.595Z,45.34
2023-02-14T19:47:47.638Z,45.29
2023-02-14T19:50:33.875Z,45.33
2023-02-14T19:53:19.772Z,45.34
2023-02-14T19:56:06.415Z,45.50
2023-02-14T19:58:56.165Z,45.08
2023-02-14T20:01:46.530Z,45.40
2023-02-14T20:04:32.606Z,45.65
2023-02-14T20:07:18.610Z,45.61
2023-02-14T20:10:06.003Z,45.79
2023-02-14T20:12:52.260Z,45.37
2023-02-14T20:15:38.364Z,45.63
2023-02-14T20:18:24.481Z,45.63
2023-02-14T20:21:17.933Z,45.27
2023-02-14T20:24:04.142Z,45.96
2023-02-14T20:26:50.925Z,45.41
2023-02-14T20:29:39.080Z,45.72
2023-02-14T20:32:27.978Z,45.55
2023-02-14T20:35:13.880Z,45.57
2023-02-14T20:38:00.832Z,45.62
2023-02-14T20:40:48.278Z,45.99
2023-02-14T20:43:35.250Z,45.72
2023-02-14T20:46:22.347Z,45.77
2023-02-14T20:49:11.225Z,45.77
2023-02-14T20:51:58.291Z,46.23
2023-02-14T20:54:45.250Z,45.96
2023-02-14T20:57:31.359Z,46.14
2023-02-14T21:00:17.679Z,45.79
2023-02-14T21:03:04.010Z,45.64
2023-02-14T21:05:50.261Z,46.17
2023-02-14T21:08:36.528Z,46.25
2023-02-14T21:11:24.326Z,46.21
2023-02-14T21:14:12.630Z,46.18
2023-02-14T21:16:58.684Z,46.16
2023-02-14T21:19:44.398Z,46.31
2023-02-14T21:22:31.161Z,46.04
2023-02-14T21:25:17.116Z,46.40
2023-02-14T21:28:03.210Z,46.05
2023-02-14T21:30:54.469Z,46.54
2023-02-14T21:33:42.087Z,46.45
2023-02-14T21:36:29.668Z,46.51
2023-02-14T21:39:23.019Z,46.50
2023-02-14T21:42:11.681Z,46.61
2023-02-14T21:45:15.887Z,46.55
2023-02-14T21:48:21.463Z,46.25
2023-02-14T21:51:07.928Z,46.60
2023-02-14T21:53:59.917Z,46.77
2023-02-14T21:56:46.150Z,46.38
2023-02-14T22:00:05.874Z,46.53
2023-02-14T22:02:56.554Z,46.99
2023-02-14T22:05:45.726Z,46.70
2023-02-14T22:08:32.008Z,46.53
2023-02-14T22:11:23.178Z,46.60
2023-02-14T22:14:08.999Z,46.58
2023-02-14T22:16:56.548Z,46.32
2023-02-14T22:19:42.496Z,46.54
2023-02-14T22:22:28.173Z,46.37
2023-02-14T22:25:15.242Z,46.83
2023-02-14T22:28:01.289Z,46.79
2023-02-14T22:30:47.519Z,46.92
2023-02-14T22:33:33.184Z,46.54
2023-02-14T22:36:20.377Z,46.80
2023-02-14T22:39:06.830Z,46.59
2023-02-14T22:41:52.811Z,46.83
2023-02-14T22:44:38.439Z,46.97
2023-02-14T22:47:24.455Z,46.60
2023-02-14T22:50:10.599Z,46.80
2023-02-14T22:53:04.825Z,47.22
2023-02-14T22:55:50.509Z,46.84
2023-02-14T22:58:36.213Z,46.87
2023-02-14T23:01:22.534Z,46.73
2023-02-14T23:04:08.760Z,46.72
2023-02-14T23:06:55.053Z,46.80
2023-02-14T23:09:40.620Z,46.94
2023-02-14T23:12:44.782Z,46.84
2023-02-14T23:15:51.598Z,46.63
2023-02-14T23:18:56.056Z,46.46
2023-02-14T23:21:57.997Z,46.89
2023-02-14T23:24:45.477Z,46.99
2023-02-14T23:27:38.478Z,46.86
2023-02-14T23:30:24.211Z,46.79
2023-02-14T23:33:15.898Z,46.86
2023-02-14T23:36:04.959Z,46.76
2023-02-14T23:38:52.931Z,46.60
2023-02-14T23:42:03.479Z,46.67
2023-02-14T23:44:49.557Z,47.03
2023-02-14T23:47:35.344Z,46.66
2023-02-14T23:50:23.987Z,46.83
2023-02-14T23:53:09.854Z,47.19
2023-02-14T23:56:02.290Z,46.76
2023-02-14T23:58:48.378Z,46.94
